Time;durP1;ratioP1;P1;durP2;ratioP2;P2;SDS_P1;SDS_P2;PMS_P1;PMS_P2;Temp;Humidity;BMP_temperature;BMP_pressure;BME280_temperature;BME280_humidity;BME280_pressure;Samples;Min_cycle;Max_cycle;Signal;HPM_P1;HPM_P2
2023/08/24 00:01:02;;;;;;;34.05;30.40;;;21.70;99.90;;;;;;5061619;28;20043;-82
2023/08/24 00:03:30;;;;;;;35.60;32.20;;;21.60;99.90;;;;;;5043528;28;20128;-83
2023/08/24 00:05:58;;;;;;;34.90;31.50;;;21.60;99.90;;;;;;5039278;28;20513;-84
2023/08/24 00:08:25;;;;;;;34.95;31.48;;;21.50;99.90;;;;;;5040206;28;20044;-83
2023/08/24 00:10:53;;;;;;;36.00;32.42;;;21.50;99.90;;;;;;5038314;28;20045;-81
2023/08/24 00:13:21;;;;;;;35.00;31.40;;;21.50;99.90;;;;;;5044570;28;20038;-84
2023/08/24 00:15:48;;;;;;;36.33;32.67;;;21.50;99.90;;;;;;5035771;28;20037;-83
2023/08/24 00:18:18;;;;;;;35.22;31.88;;;21.50;99.90;;;;;;5039164;28;20076;-83
2023/08/24 00:20:47;;;;;;;35.40;31.88;;;21.50;99.90;;;;;;5037506;28;20045;-83
2023/08/24 00:23:15;;;;;;;35.10;31.67;;;21.50;99.90;;;;;;5017521;28;20095;-82
2023/08/24 00:25:42;;;;;;;35.95;32.65;;;21.30;99.90;;;;;;5036053;28;20041;-82
2023/08/24 00:28:10;;;;;;;33.97;30.85;;;21.20;99.90;;;;;;5020961;28;20049;-83
2023/08/24 00:30:38;;;;;;;33.28;29.92;;;21.10;99.90;;;;;;5020907;28;20048;-83
2023/08/24 00:33:06;;;;;;;32.75;29.45;;;21.10;99.90;;;;;;5036089;28;20045;-82
2023/08/24 00:35:33;;;;;;;32.83;29.63;;;21.10;99.90;;;;;;5018946;28;20068;-83
2023/08/24 00:38:02;;;;;;;33.22;29.80;;;21.20;99.90;;;;;;5034871;28;20454;-83
2023/08/24 00:40:30;;;;;;;33.22;29.98;;;21.20;99.90;;;;;;5020387;28;20136;-83
2023/08/24 00:42:57;;;;;;;33.47;30.38;;;21.10;99.90;;;;;;5019800;28;20052;-83
2023/08/24 00:45:25;;;;;;;34.03;30.55;;;21.10;99.90;;;;;;5039336;28;20128;-83
2023/08/24 00:47:53;;;;;;;33.58;30.48;;;20.90;99.90;;;;;;5037318;28;20118;-83
2023/08/24 00:50:21;;;;;;;34.42;31.02;;;20.90;99.90;;;;;;5020553;28;20049;-83
2023/08/24 00:52:50;;;;;;;36.20;32.45;;;20.70;99.90;;;;;;5036949;28;20416;-83
2023/08/24 00:55:19;;;;;;;35.38;31.75;;;20.70;99.90;;;;;;5019086;28;20045;-83
2023/08/24 00:57:46;;;;;;;34.80;31.30;;;20.80;99.90;;;;;;5037117;28;20034;-83
2023/08/24 01:00:16;;;;;;;44.38;39.60;;;20.90;99.90;;;;;;5039332;28;20045;-82
2023/08/24 01:02:43;;;;;;;36.35;32.85;;;21.00;99.90;;;;;;5019693;28;20045;-82
2023/08/24 01:05:11;;;;;;;36.38;32.80;;;21.00;99.90;;;;;;5038287;28;20052;-83
2023/08/24 01:07:40;;;;;;;43.72;39.13;;;20.90;99.90;;;;;;5034692;28;20167;-83
2023/08/24 01:10:11;;;;;;;37.42;33.80;;;21.00;99.90;;;;;;5018352;28;20409;-83
2023/08/24 01:12:58;;;;;;;38.42;34.38;;;20.90;99.90;;;;;;5036475;28;20520;-83
2023/08/24 01:15:33;;;;;;;37.25;33.45;;;20.90;99.90;;;;;;5020105;28;20056;-82
2023/08/24 01:18:06;;;;;;;36.17;32.50;;;20.90;99.90;;;;;;5030903;28;20209;-83
2023/08/24 01:20:36;;;;;;;37.80;33.92;;;20.90;99.90;;;;;;5008510;28;20045;-82
2023/08/24 01:23:14;;;;;;;35.63;32.22;;;20.80;99.90;;;;;;5008570;28;20045;-83
2023/08/24 01:25:49;;;;;;;36.17;32.67;;;20.80;99.90;;;;;;5009136;28;20069;-84
2023/08/24 01:28:20;;;;;;;36.97;33.30;;;20.80;99.90;;;;;;4992388;28;20044;-83
2023/08/24 01:30:48;;;;;;;36.03;32.67;;;20.80;99.90;;;;;;5009053;28;20133;-83
2023/08/24 01:33:16;;;;;;;37.75;33.95;;;20.90;99.90;;;;;;5009566;28;20045;-83
2023/08/24 01:35:43;;;;;;;36.97;33.47;;;20.80;99.90;;;;;;5008478;28;20137;-81
2023/08/24 01:38:12;;;;;;;37.90;34.38;;;20.70;99.90;;;;;;5008919;28;20132;-83
2023/08/24 01:40:50;;;;;;;35.83;32.42;;;20.70;99.90;;;;;;5025657;28;20045;-82
2023/08/24 01:43:21;;;;;;;38.10;34.30;;;20.70;99.90;;;;;;5008215;28;20060;-82
2023/08/24 01:45:52;;;;;;;38.70;34.97;;;20.60;99.90;;;;;;5025769;28;20065;-83
2023/08/24 01:48:21;;;;;;;33.80;30.52;;;20.60;99.90;;;;;;5024779;28;20037;-82
2023/08/24 01:50:50;;;;;;;34.88;31.67;;;20.70;99.90;;;;;;5024550;28;21569;-82
2023/08/24 01:53:18;;;;;;;35.15;31.83;;;20.70;99.90;;;;;;5008560;28;20077;-82
2023/08/24 01:55:46;;;;;;;36.58;32.75;;;20.60;99.90;;;;;;5025709;28;20060;-82
2023/08/24 01:58:14;;;;;;;35.42;31.95;;;20.60;99.90;;;;;;5027331;28;20416;-82
2023/08/24 02:00:43;;;;;;;36.15;32.72;;;20.60;99.90;;;;;;5008838;28;20199;-84
2023/08/24 02:03:10;;;;;;;37.00;33.25;;;20.70;99.90;;;;;;5008817;28;20049;-82
2023/08/24 02:05:38;;;;;;;37.38;33.70;;;20.70;99.90;;;;;;5008252;28;20038;-83
2023/08/24 02:08:06;;;;;;;38.92;35.15;;;20.80;99.90;;;;;;5007879;28;20406;-84
2023/08/24 02:10:33;;;;;;;40.45;36.30;;;20.70;99.90;;;;;;5007845;28;20041;-82
2023/08/24 02:13:01;;;;;;;41.35;37.03;;;20.70;99.90;;;;;;5008115;28;20048;-83
2023/08/24 02:15:28;;;;;;;39.65;35.63;;;20.60;99.90;;;;;;5008788;28;20037;-82
2023/08/24 02:17:58;;;;;;;41.00;36.85;;;20.40;99.90;;;;;;5010794;28;20053;-83
2023/08/24 02:20:26;;;;;;;39.33;35.42;;;20.30;99.90;;;;;;5026079;28;20048;-82
2023/08/24 02:22:53;;;;;;;39.15;35.25;;;20.30;99.90;;;;;;5025497;28;20673;-82
2023/08/24 02:25:22;;;;;;;40.97;34.47;;;20.30;99.90;;;;;;5025449;28;20123;-82
2023/08/24 02:27:50;;;;;;;38.70;34.95;;;20.40;99.90;;;;;;5015236;28;20056;-82
2023/08/24 02:30:17;;;;;;;39.35;35.63;;;20.50;99.90;;;;;;5016062;28;20145;-82
2023/08/24 02:32:44;;;;;;;38.63;35.13;;;20.40;99.90;;;;;;5015597;28;20053;-82
2023/08/24 02:35:14;;;;;;;39.00;35.22;;;20.40;99.90;;;;;;5026238;28;20115;-83
2023/08/24 02:37:43;;;;;;;39.08;35.25;;;20.40;99.90;;;;;;5013678;28;20053;-83
2023/08/24 02:40:11;;;;;;;39.15;35.10;;;20.40;99.90;;;;;;5026364;28;20072;-82
2023/08/24 02:42:38;;;;;;;42.67;38.53;;;20.40;99.90;;;;;;5025869;28;20501;-82
2023/08/24 02:45:07;;;;;;;46.38;41.63;;;20.40;99.90;;;;;;5026257;28;20045;-83
2023/08/24 02:47:36;;;;;;;43.55;39.13;;;20.40;99.90;;;;;;5015473;28;20091;-81
2023/08/24 02:50:03;;;;;;;41.38;37.22;;;20.50;99.90;;;;;;5017324;28;20088;-83
2023/08/24 02:52:33;;;;;;;40.97;37.08;;;20.30;99.90;;;;;;5025727;28;20057;-83
2023/08/24 02:55:00;;;;;;;38.35;34.83;;;20.20;99.90;;;;;;5028203;28;20045;-82
2023/08/24 02:57:29;;;;;;;37.63;33.92;;;20.20;99.90;;;;;;5019310;28;20447;-82
2023/08/24 02:59:56;;;;;;;39.25;35.35;;;20.30;99.90;;;;;;5029575;28;20591;-82
2023/08/24 03:02:24;;;;;;;38.70;34.88;;;20.20;99.90;;;;;;5018360;28;20076;-81
2023/08/24 03:04:51;;;;;;;38.70;34.97;;;20.30;99.90;;;;;;5029856;28;20140;-82
2023/08/24 03:07:19;;;;;;;39.83;35.83;;;20.30;99.90;;;;;;5029600;28;20042;-82
2023/08/24 03:09:48;;;;;;;38.90;35.03;;;20.20;99.90;;;;;;5029347;28;20123;-83
2023/08/24 03:12:15;;;;;;;40.67;36.25;;;20.20;99.90;;;;;;5034885;28;20067;-82
2023/08/24 03:14:43;;;;;;;39.05;35.28;;;20.20;99.90;;;;;;5030108;28;20140;-83
2023/08/24 03:17:10;;;;;;;41.10;37.05;;;20.20;99.90;;;;;;5019170;28;20140;-83
2023/08/24 03:19:38;;;;;;;41.58;37.47;;;20.20;99.90;;;;;;5021034;28;20037;-84
2023/08/24 03:22:05;;;;;;;40.47;36.72;;;20.10;99.90;;;;;;5069177;22;20061;-77
2023/08/24 03:24:34;;;;;;;39.45;35.63;;;20.10;99.90;;;;;;5087445;28;20032;-78
2023/08/24 03:27:03;;;;;;;37.33;33.75;;;20.10;99.90;;;;;;5098350;28;20041;-78
2023/08/24 03:29:34;;;;;;;39.63;35.90;;;20.00;99.90;;;;;;5074049;28;20037;-77
2023/08/24 03:32:01;;;;;;;39.60;35.70;;;20.00;99.90;;;;;;5073551;28;20052;-77
2023/08/24 03:34:29;;;;;;;40.55;36.33;;;20.10;99.90;;;;;;5071988;28;20612;-79
2023/08/24 03:36:57;;;;;;;41.35;37.20;;;20.10;99.90;;;;;;5063873;28;20089;-77
2023/08/24 03:39:27;;;;;;;42.00;37.92;;;20.10;99.90;;;;;;5065236;28;20132;-78
2023/08/24 03:41:56;;;;;;;40.20;36.47;;;19.90;99.90;;;;;;5060763;28;20532;-78
2023/08/24 03:44:25;;;;;;;41.63;37.53;;;19.90;99.90;;;;;;5076911;28;20024;-77
2023/08/24 03:46:52;;;;;;;41.17;36.95;;;19.90;99.90;;;;;;5086955;28;20109;-79
2023/08/24 03:49:20;;;;;;;40.13;36.10;;;19.90;99.90;;;;;;5087436;28;20052;-77
2023/08/24 03:51:47;;;;;;;41.70;37.47;;;19.90;99.90;;;;;;5088697;28;20020;-78
2023/08/24 03:54:15;;;;;;;41.95;37.85;;;19.90;99.90;;;;;;5093999;28;20028;-76
2023/08/24 03:56:55;;;;;;;42.00;37.47;;;19.90;99.90;;;;;;5087130;28;20056;-80
2023/08/24 03:59:29;;;;;;;40.63;36.85;;;19.90;99.90;;;;;;5085203;28;20049;-78
2023/08/24 04:01:59;;;;;;;40.28;36.25;;;20.00;99.90;;;;;;5074052;28;20068;-76
2023/08/24 04:04:27;;;;;;;39.03;35.00;;;20.00;99.90;;;;;;5060692;28;20056;-75
2023/08/24 04:06:54;;;;;;;38.47;34.75;;;20.00;99.90;;;;;;5059799;28;20123;-79
2023/08/24 04:09:23;;;;;;;38.42;34.92;;;20.00;99.90;;;;;;5056432;28;20072;-77
2023/08/24 04:11:51;;;;;;;39.28;35.50;;;19.90;99.90;;;;;;5070494;28;20041;-76
2023/08/24 04:14:18;;;;;;;41.50;37.60;;;20.10;99.90;;;;;;5070051;28;20145;-77
2023/08/24 04:16:47;;;;;;;41.45;37.25;;;20.10;99.90;;;;;;5060875;28;20439;-75
2023/08/24 04:19:15;;;;;;;43.70;39.45;;;20.00;99.90;;;;;;5060212;28;20036;-76
2023/08/24 04:21:43;;;;;;;43.08;38.55;;;19.90;99.90;;;;;;5062739;28;20065;-77
2023/08/24 04:24:10;;;;;;;42.20;38.10;;;19.80;99.90;;;;;;5047865;28;20053;-77
2023/08/24 04:26:38;;;;;;;41.67;37.53;;;19.80;99.90;;;;;;5049808;28;20084;-77
2023/08/24 04:29:06;;;;;;;42.35;37.75;;;19.80;99.90;;;;;;5049741;28;20052;-77
2023/08/24 04:31:35;;;;;;;39.78;35.85;;;20.00;99.90;;;;;;5049705;28;20489;-76
2023/08/24 04:34:03;;;;;;;61.33;40.70;;;20.10;99.90;;;;;;5048656;28;20055;-77
2023/08/24 04:36:31;;;;;;;42.05;37.78;;;20.20;99.90;;;;;;5048568;28;20065;-76
2023/08/24 04:39:00;;;;;;;39.00;34.97;;;20.30;99.90;;;;;;5050315;28;20064;-77
2023/08/24 04:41:29;;;;;;;49.97;33.70;;;20.50;99.90;;;;;;5049743;28;20040;-77
2023/08/24 04:43:56;;;;;;;41.70;34.75;;;20.60;99.90;;;;;;5051931;28;20068;-76
2023/08/24 04:46:24;;;;;;;36.13;32.53;;;20.80;99.90;;;;;;5048202;28;20488;-77
2023/08/24 04:48:51;;;;;;;36.33;32.78;;;20.90;99.90;;;;;;5048829;28;20064;-77
2023/08/24 04:51:20;;;;;;;36.72;32.95;;;21.00;99.90;;;;;;5031661;28;20049;-77
2023/08/24 04:53:48;;;;;;;36.45;32.85;;;21.10;99.90;;;;;;5049067;28;20045;-78
2023/08/24 04:56:19;;;;;;;37.05;33.47;;;21.10;99.90;;;;;;5049409;28;20041;-77
2023/08/24 04:58:55;;;;;;;36.28;32.47;;;21.20;99.90;;;;;;5046977;28;20049;-77
2023/08/24 05:01:22;;;;;;;36.75;33.17;;;21.30;99.90;;;;;;5030645;28;20048;-77
2023/08/24 05:03:50;;;;;;;36.17;32.42;;;21.40;99.90;;;;;;5048401;28;20135;-77
2023/08/24 05:06:18;;;;;;;42.85;38.25;;;21.50;99.90;;;;;;5031584;28;20106;-78
2023/08/24 05:08:47;;;;;;;36.53;32.85;;;21.60;99.90;;;;;;5049895;28;20040;-77
2023/08/24 05:11:15;;;;;;;35.03;31.45;;;21.80;99.90;;;;;;5030607;28;20053;-78
2023/08/24 05:13:42;;;;;;;33.88;30.33;;;21.90;99.90;;;;;;5049213;28;20071;-77
2023/08/24 05:16:10;;;;;;;36.42;32.45;;;22.10;99.90;;;;;;5067453;28;20045;-77
2023/08/24 05:18:38;;;;;;;34.42;31.02;;;22.10;99.90;;;;;;5041592;28;20052;-77
2023/08/24 05:21:06;;;;;;;35.30;31.95;;;22.30;99.90;;;;;;5052181;28;20037;-79
2023/08/24 05:23:34;;;;;;;32.60;29.30;;;22.30;99.90;;;;;;5069057;28;20127;-76
2023/08/24 05:26:04;;;;;;;34.67;31.17;;;22.40;99.90;;;;;;5084554;28;20047;-79
2023/08/24 05:28:32;;;;;;;33.88;30.27;;;22.50;99.90;;;;;;5069300;28;20483;-78
2023/08/24 05:31:00;;;;;;;33.08;29.67;;;22.80;99.90;;;;;;5057605;28;20121;-78
2023/08/24 05:33:30;;;;;;;38.50;31.17;;;22.90;99.90;;;;;;5058915;28;20154;-79
2023/08/24 05:35:59;;;;;;;36.80;31.88;;;23.20;99.90;;;;;;5066874;28;20047;-78
2023/08/24 05:38:26;;;;;;;33.45;30.23;;;23.40;99.90;;;;;;5059692;28;20046;-78
2023/08/24 05:40:54;;;;;;;34.53;31.23;;;23.60;99.90;;;;;;5066235;28;20372;-76
2023/08/24 05:43:23;;;;;;;32.88;29.40;;;23.80;99.90;;;;;;5055831;28;20044;-77
2023/08/24 05:45:50;;;;;;;31.08;27.85;;;24.00;99.90;;;;;;5072982;28;20496;-78
2023/08/24 05:48:18;;;;;;;32.20;29.08;;;24.10;99.90;;;;;;5055522;28;20041;-78
2023/08/24 05:50:46;;;;;;;32.53;29.30;;;24.30;99.90;;;;;;5084651;28;20051;-79
2023/08/24 05:53:14;;;;;;;30.83;27.83;;;24.50;99.90;;;;;;5081574;28;20108;-79
2023/08/24 05:55:42;;;;;;;32.42;29.08;;;24.60;99.90;;;;;;5091366;28;20041;-78
2023/08/24 05:58:10;;;;;;;33.13;29.58;;;24.80;99.90;;;;;;5085572;28;20113;-78
2023/08/24 06:00:39;;;;;;;45.70;31.58;;;24.90;99.90;;;;;;5075823;28;20055;-77
2023/08/24 06:03:06;;;;;;;36.00;29.00;;;25.10;99.90;;;;;;5085860;28;20048;-79
2023/08/24 06:05:34;;;;;;;36.55;30.90;;;25.30;99.90;;;;;;5071878;28;20496;-76
2023/08/24 06:08:01;;;;;;;31.48;28.20;;;25.30;99.90;;;;;;5061209;28;20044;-77
2023/08/24 06:10:35;;;;;;;37.28;33.20;;;25.60;99.90;;;;;;5070892;28;20468;-77
2023/08/24 06:13:03;;;;;;;31.70;28.73;;;25.80;99.90;;;;;;5060779;28;20052;-78
2023/08/24 06:15:30;;;;;;;30.15;27.10;;;26.00;99.90;;;;;;5068056;28;20040;-79
2023/08/24 06:18:00;;;;;;;30.83;27.58;;;26.00;99.90;;;;;;5054100;28;20127;-80
2023/08/24 06:20:28;;;;;;;31.50;27.15;;;26.30;99.90;;;;;;5071218;28;20040;-78
2023/08/24 06:22:56;;;;;;;29.48;26.48;;;26.50;99.90;;;;;;5061003;28;20036;-79
2023/08/24 06:25:24;;;;;;;30.05;27.02;;;26.70;99.90;;;;;;5069556;28;20067;-79
2023/08/24 06:27:53;;;;;;;31.25;28.10;;;27.00;99.90;;;;;;5060007;28;20132;-78
2023/08/24 06:30:21;;;;;;;32.83;29.23;;;27.20;99.90;;;;;;5058108;28;20045;-78
2023/08/24 06:32:48;;;;;;;36.55;31.38;;;27.20;99.90;;;;;;5059175;28;20049;-77
2023/08/24 06:35:18;;;;;;;32.35;29.15;;;27.20;99.90;;;;;;5059748;28;20101;-78
2023/08/24 06:37:45;;;;;;;34.22;30.88;;;27.20;99.90;;;;;;5074022;28;20057;-77
2023/08/24 06:40:14;;;;;;;34.30;30.77;;;27.10;99.90;;;;;;5074015;28;20045;-79
2023/08/24 06:42:42;;;;;;;38.17;33.03;;;27.10;99.90;;;;;;5068928;28;20120;-79
2023/08/24 06:45:11;;;;;;;35.33;31.23;;;27.20;99.90;;;;;;5068358;28;20130;-79
2023/08/24 06:47:38;;;;;;;35.22;31.40;;;27.30;99.90;;;;;;5067897;28;20041;-78
2023/08/24 06:50:28;;;;;;;36.95;33.20;;;27.40;99.90;;;;;;5068925;28;20131;-81
2023/08/24 06:52:56;;;;;;;38.40;34.35;;;27.30;99.90;;;;;;5070353;28;20488;-77
2023/08/24 06:55:24;;;;;;;45.53;36.42;;;27.30;99.90;;;;;;5061924;28;20159;-78
2023/08/24 06:57:52;;;;;;;39.58;35.28;;;27.30;99.90;;;;;;5072407;28;20069;-79
2023/08/24 07:00:20;;;;;;;39.95;35.38;;;27.50;99.90;;;;;;5069902;28;20047;-79
2023/08/24 07:02:49;;;;;;;42.70;37.03;;;27.60;99.90;;;;;;5075758;28;20071;-80
2023/08/24 07:05:19;;;;;;;39.70;35.45;;;27.70;99.90;;;;;;5076313;28;20068;-79
2023/08/24 07:07:50;;;;;;;39.65;35.63;;;28.00;99.90;;;;;;5062791;28;20084;-80
2023/08/24 07:10:18;;;;;;;39.22;35.42;;;28.30;99.90;;;;;;5055241;28;20064;-79
2023/08/24 07:12:45;;;;;;;44.05;36.47;;;28.60;99.90;;;;;;5055276;28;20113;-79
2023/08/24 07:15:13;;;;;;;42.40;37.65;;;28.70;99.90;;;;;;5067697;28;20109;-78
2023/08/24 07:17:41;;;;;;;39.67;35.83;;;28.80;99.90;;;;;;5060209;28;20041;-79
2023/08/24 07:20:11;;;;;;;41.75;37.70;;;28.80;99.90;;;;;;5056096;28;20045;-79
2023/08/24 07:22:38;;;;;;;39.75;34.60;;;29.00;99.90;;;;;;5055911;28;20062;-80
2023/08/24 07:25:11;;;;;;;41.25;36.80;;;29.00;99.90;;;;;;5060024;28;20052;-80
2023/08/24 07:27:38;;;;;;;37.35;33.55;;;28.90;99.90;;;;;;5068285;28;20148;-80
2023/08/24 07:30:10;;;;;;;39.67;35.72;;;28.90;99.90;;;;;;5084495;28;20045;-79
2023/08/24 07:32:38;;;;;;;40.17;36.05;;;28.80;99.90;;;;;;5074494;28;20153;-80
2023/08/24 07:35:07;;;;;;;38.75;34.80;;;28.80;99.90;;;;;;5074941;28;20037;-81
2023/08/24 07:37:36;;;;;;;38.97;34.88;;;28.80;99.90;;;;;;5066818;28;20108;-82
2023/08/24 07:40:05;;;;;;;38.20;34.10;;;28.90;99.90;;;;;;5070760;28;20064;-82
2023/08/24 07:42:44;;;;;;;37.90;33.85;;;29.00;99.90;;;;;;5088399;28;20060;-82
2023/08/24 07:45:15;;;;;;;38.05;33.20;;;29.10;99.90;;;;;;5078798;28;20060;-81
2023/08/24 07:47:42;;;;;;;37.22;33.40;;;29.20;99.90;;;;;;5062932;28;20052;-80
2023/08/24 07:50:12;;;;;;;35.53;30.65;;;29.40;99.90;;;;;;5057923;28;20602;-80
2023/08/24 07:52:41;;;;;;;32.08;26.40;;;29.40;99.90;;;;;;5063394;28;20415;-82
2023/08/24 07:55:18;;;;;;;32.55;29.35;;;29.50;99.90;;;;;;5063420;28;20143;-83
2023/08/24 07:58:43;;;;;;;33.17;29.52;;;29.60;99.90;;;;;;5072242;28;20045;-81
2023/08/24 08:01:37;;;;;;;33.08;27.10;;;29.70;99.90;;;;;;5039941;28;20125;-80
2023/08/24 08:04:13;;;;;;;31.50;28.52;;;29.80;99.90;;;;;;5073047;28;20226;-82
2023/08/24 08:06:43;;;;;;;37.10;29.08;;;30.00;99.90;;;;;;5064860;28;20139;-81
2023/08/24 08:09:11;;;;;;;33.83;27.60;;;30.20;99.90;;;;;;5073824;28;20048;-79
2023/08/24 08:11:38;;;;;;;31.55;27.38;;;30.30;99.90;;;;;;5088199;28;20097;-81
2023/08/24 08:14:10;;;;;;;29.95;26.85;;;30.30;99.90;;;;;;5093407;28;20028;-83
2023/08/24 08:16:39;;;;;;;32.67;29.48;;;30.30;99.90;;;;;;5093988;28;20049;-79
2023/08/24 08:19:07;;;;;;;32.47;29.10;;;30.40;99.90;;;;;;5073508;28;20492;-78
2023/08/24 08:21:34;;;;;;;31.13;28.00;;;30.50;99.90;;;;;;5086438;28;20036;-77
2023/08/24 08:24:01;;;;;;;30.77;27.58;;;30.50;99.90;;;;;;5078619;28;20041;-79
2023/08/24 08:26:29;;;;;;;30.63;27.52;;;30.60;99.90;;;;;;5077099;28;20041;-78
2023/08/24 08:32:32;;;;;;;29.55;26.00;;;30.80;99.90;;;;;;5054976;28;20033;-83
2023/08/24 08:35:01;;;;;;;26.02;23.45;;;30.90;99.90;;;;;;5043661;28;20500;-74
2023/08/24 08:37:36;;;;;;;25.05;22.60;;;30.80;99.90;;;;;;5050680;28;20040;-75
2023/08/24 08:40:05;;;;;;;27.58;24.45;;;30.70;99.90;;;;;;5053820;28;20041;-78
2023/08/24 08:42:34;;;;;;;27.98;24.73;;;30.70;99.90;;;;;;5082171;28;20069;-76
2023/08/24 08:45:03;;;;;;;28.23;25.58;;;30.90;99.90;;;;;;5044669;28;20139;-75
2023/08/24 08:47:33;;;;;;;24.90;22.25;;;31.10;99.90;;;;;;5058379;28;20044;-78
2023/08/24 08:50:02;;;;;;;26.13;23.35;;;31.20;99.90;;;;;;5057052;28;20460;-77
2023/08/24 08:52:30;;;;;;;26.30;23.02;;;31.10;99.90;;;;;;5060082;28;20080;-81
2023/08/24 08:54:58;;;;;;;25.33;22.73;;;31.10;99.90;;;;;;5059320;28;20485;-76
2023/08/24 08:57:26;;;;;;;25.13;22.52;;;31.10;99.90;;;;;;5058986;28;20045;-75
2023/08/24 08:59:54;;;;;;;25.10;22.08;;;31.20;99.90;;;;;;5048735;28;20108;-78
2023/08/24 09:02:24;;;;;;;27.15;22.48;;;31.20;99.90;;;;;;5059932;28;20037;-78
2023/08/24 09:04:53;;;;;;;24.90;22.23;;;31.30;99.90;;;;;;5056382;28;20480;-75
2023/08/24 09:07:21;;;;;;;28.08;24.17;;;31.50;99.90;;;;;;5060805;28;20052;-75
2023/08/24 09:09:50;;;;;;;25.45;23.02;;;31.60;99.90;;;;;;5058526;28;20108;-78
2023/08/24 09:12:18;;;;;;;27.08;24.25;;;31.70;99.90;;;;;;5062174;28;20051;-76
2023/08/24 09:14:45;;;;;;;24.42;21.85;;;31.70;99.90;;;;;;5058358;28;20037;-78
2023/08/24 09:17:21;;;;;;;22.98;20.58;;;31.80;99.90;;;;;;5070720;28;20048;-77
2023/08/24 09:19:52;;;;;;;23.27;20.90;;;32.00;99.90;;;;;;5060462;28;20469;-78
2023/08/24 09:22:21;;;;;;;26.42;21.08;;;32.10;99.90;;;;;;5074159;22;20052;-84
2023/08/24 09:24:51;;;;;;;20.20;18.30;;;32.20;99.90;;;;;;5067100;28;20060;-83
2023/08/24 09:27:19;;;;;;;20.85;18.63;;;32.20;99.90;;;;;;5060447;28;20056;-82
2023/08/24 09:29:50;;;;;;;20.75;18.42;;;32.10;99.90;;;;;;5059092;28;20128;-80
2023/08/24 09:32:23;;;;;;;19.88;17.70;;;31.80;99.90;;;;;;5038366;28;20045;-78
2023/08/24 09:35:03;;;;;;;19.33;17.30;;;32.00;99.90;;;;;;5047981;28;20044;-81
2023/08/24 09:37:35;;;;;;;19.13;17.23;;;31.90;99.90;;;;;;5041152;28;20119;-81
2023/08/24 09:40:07;;;;;;;19.13;16.55;;;32.00;99.90;;;;;;5052144;28;20451;-80
2023/08/24 09:42:42;;;;;;;20.20;18.00;;;31.90;99.90;;;;;;5057476;28;20215;-80
2023/08/24 09:45:13;;;;;;;17.33;15.50;;;32.10;99.90;;;;;;5060706;28;20048;-86
2023/08/24 09:47:40;;;;;;;24.15;20.48;;;32.10;99.90;;;;;;5039370;28;20506;-86
2023/08/24 09:50:09;;;;;;;21.35;19.23;;;32.40;99.90;;;;;;5059472;28;20040;-85
2023/08/24 09:52:42;;;;;;;22.23;19.38;;;32.70;99.90;;;;;;5040026;28;20056;-77
2023/08/24 09:55:11;;;;;;;22.65;18.67;;;32.80;99.90;;;;;;5054610;28;20052;-83
2023/08/24 09:57:40;;;;;;;18.20;16.33;;;32.90;99.90;;;;;;5039439;28;20045;-85
2023/08/24 10:00:14;;;;;;;21.08;16.92;;;32.90;99.90;;;;;;5058730;28;20469;-85
2023/08/24 10:02:55;;;;;;;19.38;16.85;;;32.80;99.90;;;;;;5041629;28;20503;-80
2023/08/24 10:05:27;;;;;;;20.77;16.75;;;32.80;99.90;;;;;;5037020;28;20048;-78
2023/08/24 10:07:59;;;;;;;18.40;16.67;;;32.70;99.90;;;;;;5058357;28;20037;-83
2023/08/24 10:10:42;;;;;;;19.20;16.73;;;32.80;99.90;;;;;;5055417;28;20124;-84
2023/08/24 10:13:19;;;;;;;20.10;18.10;;;32.90;99.90;;;;;;5058117;28;20043;-81
2023/08/24 10:15:57;;;;;;;17.45;15.27;;;33.00;99.90;;;;;;5062089;28;20147;-82
2023/08/24 10:18:26;;;;;;;17.27;15.48;;;33.10;99.90;;;;;;5041959;28;20136;-82
2023/08/24 10:20:54;;;;;;;18.05;15.00;;;33.40;99.90;;;;;;5041195;28;20395;-82
2023/08/24 10:23:24;;;;;;;18.90;16.98;;;33.50;99.90;;;;;;5045498;28;20049;-81
2023/08/24 10:25:53;;;;;;;20.10;15.20;;;33.60;99.90;;;;;;5044409;28;20156;-78
2023/08/24 10:28:22;;;;;;;17.58;15.95;;;33.70;99.90;;;;;;5044289;28;20047;-85
2023/08/24 10:31:10;;;;;;;17.10;15.02;;;33.80;99.90;;;;;;5043950;28;20037;-84
2023/08/24 10:33:38;;;;;;;21.50;17.67;;;33.80;99.90;;;;;;5028615;28;20086;-82
2023/08/24 10:36:07;;;;;;;16.75;15.13;;;34.00;99.90;;;;;;5046607;28;20049;-82
2023/08/24 10:38:43;;;;;;;21.10;18.88;;;34.20;99.90;;;;;;5024577;28;20041;-84
2023/08/24 10:41:12;;;;;;;22.52;20.30;;;34.10;99.90;;;;;;5017155;28;20060;-82
2023/08/24 10:43:41;;;;;;;20.50;15.98;;;33.80;99.90;;;;;;4991869;28;20045;-84
2023/08/24 10:46:14;;;;;;;19.33;17.17;;;33.50;99.90;;;;;;5006669;28;20055;-81
2023/08/24 10:49:00;;;;;;;18.30;16.50;;;33.30;99.90;;;;;;5024647;28;20101;-81
2023/08/24 10:51:30;;;;;;;18.13;16.25;;;33.10;99.90;;;;;;5029695;28;20048;-82
2023/08/24 10:54:00;;;;;;;18.02;16.13;;;33.10;99.90;;;;;;5044005;28;20048;-83
2023/08/24 10:56:38;;;;;;;17.52;15.93;;;33.20;99.90;;;;;;5026836;28;20069;-83
2023/08/24 10:59:14;;;;;;;17.67;15.85;;;33.10;99.90;;;;;;5046337;28;20657;-83
2023/08/24 11:01:42;;;;;;;19.45;17.58;;;32.90;99.90;;;;;;5047724;28;20053;-78
2023/08/24 11:04:13;;;;;;;19.42;17.42;;;32.70;99.90;;;;;;5029442;28;20794;-82
2023/08/24 11:06:54;;;;;;;20.50;17.02;;;32.70;99.90;;;;;;5047223;28;20087;-90
2023/08/24 11:09:31;;;;;;;28.00;25.23;;;32.50;99.90;;;;;;5043944;28;20139;-87
2023/08/24 11:12:00;;;;;;;22.15;19.88;;;32.40;99.90;;;;;;5027341;28;20034;-84
2023/08/24 11:14:33;;;;;;;18.58;16.65;;;32.30;99.90;;;;;;5039311;28;20504;-83
2023/08/24 11:17:17;;;;;;;19.45;16.80;;;32.30;99.90;;;;;;5029142;28;20048;-85
2023/08/24 11:19:50;;;;;;;20.83;17.90;;;32.30;99.90;;;;;;5032769;28;20084;-85
2023/08/24 11:22:18;;;;;;;20.30;18.23;;;32.50;99.90;;;;;;5047483;28;20049;-86
2023/08/24 11:24:47;;;;;;;21.70;19.45;;;32.90;99.90;;;;;;5032126;28;20049;-85
2023/08/24 11:27:16;;;;;;;19.73;17.83;;;33.00;99.90;;;;;;5035496;28;20053;-86
2023/08/24 11:29:43;;;;;;;18.60;16.73;;;33.40;99.90;;;;;;5032763;28;20056;-87
2023/08/24 11:32:11;;;;;;;17.90;16.20;;;33.70;99.90;;;;;;5033170;28;20071;-88
2023/08/24 11:34:40;;;;;;;19.92;17.23;;;33.90;99.90;;;;;;5033044;28;20051;-87
2023/08/24 11:37:19;;;;;;;19.25;16.58;;;34.10;99.90;;;;;;5031697;28;20103;-86
2023/08/24 11:39:54;;;;;;;18.02;16.23;;;34.20;99.90;;;;;;5032131;28;20045;-85
2023/08/24 11:42:44;;;;;;;19.13;17.40;;;34.20;99.90;;;;;;5028983;28;20045;-82
2023/08/24 11:48:12;;;;;;;14.32;12.13;;;34.10;99.90;;;;;;5030096;28;20665;-85
2023/08/24 11:50:49;;;;;;;13.07;11.75;;;34.00;99.90;;;;;;5027118;28;20098;-84
2023/08/24 11:53:18;;;;;;;15.32;13.68;;;34.10;99.90;;;;;;5029675;28;20103;-87
2023/08/24 11:55:54;;;;;;;14.35;11.60;;;34.10;99.90;;;;;;5027034;28;20052;-88
2023/08/24 11:58:21;;;;;;;16.45;13.02;;;33.70;99.90;;;;;;5037882;28;20065;-81
2023/08/24 12:00:49;;;;;;;17.35;15.65;;;33.60;99.90;;;;;;5033118;28;20420;-87
2023/08/24 12:03:31;;;;;;;16.15;14.65;;;33.60;99.90;;;;;;5046979;28;20041;-86
2023/08/24 12:06:01;;;;;;;13.38;11.98;;;33.70;99.90;;;;;;5033479;28;20503;-85
2023/08/24 12:11:26;;;;;;;11.27;9.93;;;34.00;99.90;;;;;;5051591;28;20053;-89
2023/08/24 12:13:56;;;;;;;11.73;10.43;;;34.20;99.90;;;;;;5034452;28;20049;-88
2023/08/24 12:16:25;;;;;;;10.38;7.95;;;34.40;99.90;;;;;;5020011;28;20041;-91
2023/08/24 12:18:54;;;;;;;9.50;7.18;;;34.50;99.90;;;;;;5028196;28;20049;-86
2023/08/24 12:21:22;;;;;;;10.10;6.85;;;34.30;99.90;;;;;;5001720;28;20149;-88
2023/08/24 12:24:00;;;;;;;8.23;6.68;;;33.90;99.90;;;;;;5033587;28;20041;-86
2023/08/24 12:26:30;;;;;;;22.17;8.93;;;33.40;99.90;;;;;;5038586;28;20033;-89
2023/08/24 12:29:02;;;;;;;10.32;7.30;;;33.40;99.90;;;;;;5040166;28;20044;-88
2023/08/24 12:31:31;;;;;;;10.20;7.05;;;33.40;99.90;;;;;;5050130;28;20049;-88
2023/08/24 12:34:05;;;;;;;9.68;7.68;;;33.40;99.90;;;;;;5043584;28;20033;-88
2023/08/24 12:36:33;;;;;;;13.13;8.27;;;33.50;99.90;;;;;;5032978;28;20135;-86
2023/08/24 12:39:03;;;;;;;17.50;13.55;;;33.60;99.90;;;;;;5039605;28;20256;-86
2023/08/24 12:41:33;;;;;;;10.27;7.00;;;33.60;99.90;;;;;;5063864;28;20045;-88
2023/08/24 12:44:04;;;;;;;10.82;7.70;;;33.70;99.90;;;;;;5038884;28;20140;-88
2023/08/24 12:46:32;;;;;;;16.88;12.07;;;33.80;99.90;;;;;;5040766;28;20064;-87
2023/08/24 12:49:00;;;;;;;7.45;6.65;;;33.90;99.90;;;;;;5058245;28;20138;-89
2023/08/24 12:51:28;;;;;;;9.65;6.32;;;33.90;99.90;;;;;;5039896;28;20396;-83